createdAt,value
2018-02-06T00:02:18.260Z,0.39
2018-02-06T00:04:46.585Z,0.36
2018-02-06T00:07:14.938Z,0.29
2018-02-06T00:09:43.262Z,0.20
2018-02-06T00:12:11.610Z,0.41
2018-02-06T00:14:39.925Z,0.37
2018-02-06T00:17:08.245Z,0.25
2018-02-06T00:19:36.593Z,0.28
2018-02-06T00:22:04.913Z,0.47
2018-02-06T00:24:33.253Z,0.50
2018-02-06T00:27:01.578Z,0.63
2018-02-06T00:29:29.921Z,0.71
2018-02-06T00:31:58.249Z,0.72
2018-02-06T00:34:26.622Z,0.78
2018-02-06T00:36:54.915Z,0.80
2018-02-06T00:39:23.253Z,0.87
2018-02-06T00:41:51.573Z,0.90
2018-02-06T00:44:19.913Z,0.91
2018-02-06T00:46:48.228Z,0.72
2018-02-06T00:49:16.575Z,0.81
2018-02-06T00:51:44.898Z,0.84
2018-02-06T00:54:13.237Z,0.77
2018-02-06T00:56:41.553Z,0.78
2018-02-06T00:59:09.889Z,0.83
2018-02-06T01:01:38.205Z,0.81
2018-02-06T01:04:06.545Z,0.79
2018-02-06T01:06:34.865Z,0.66
2018-02-06T01:09:03.212Z,0.67
2018-02-06T01:11:31.521Z,0.63
2018-02-06T01:13:59.857Z,0.34
2018-02-06T01:16:28.177Z,0.13
2018-02-06T01:18:56.522Z,0.26
2018-02-06T01:21:24.841Z,0.12
2018-02-06T01:23:53.241Z,0.00
2018-02-06T01:26:21.622Z,-0.04
2018-02-06T01:28:49.992Z,-0.14
2018-02-06T01:31:18.317Z,-0.16
2018-02-06T01:33:46.661Z,-0.26
2018-02-06T01:36:14.984Z,-0.21
2018-02-06T01:38:43.355Z,-0.16
2018-02-06T01:41:11.658Z,-0.08
2018-02-06T01:43:39.997Z,-0.11
2018-02-06T01:46:08.321Z,-0.18
2018-02-06T01:48:36.669Z,-0.25
2018-02-06T01:51:04.984Z,-0.26
2018-02-06T01:53:33.333Z,-0.32
2018-02-06T01:56:01.670Z,-0.42
2018-02-06T01:58:30.002Z,-0.48
2018-02-06T02:00:58.325Z,-0.55
2018-02-06T02:03:26.670Z,-0.37
2018-02-06T02:05:54.993Z,-0.39
2018-02-06T02:08:23.337Z,-0.46
2018-02-06T02:10:51.656Z,-0.60
2018-02-06T02:13:20.002Z,-0.84
2018-02-06T02:15:48.326Z,-0.87
2018-02-06T02:18:16.646Z,-0.78
2018-02-06T02:20:44.990Z,-0.77
2018-02-06T02:23:13.318Z,-0.74
2018-02-06T02:25:42.185Z,-0.86
2018-02-06T02:28:10.509Z,-0.84
2018-02-06T02:30:38.857Z,-0.77
2018-02-06T02:33:07.174Z,-0.89
2018-02-06T02:35:35.569Z,-0.83
2018-02-06T02:38:03.891Z,-0.79
2018-02-06T02:40:32.234Z,-0.86
2018-02-06T04:39:13.632Z,-1.79
2018-02-06T04:41:41.974Z,-1.65
2018-02-06T04:44:10.368Z,-1.79
2018-02-06T04:46:38.736Z,-1.78
2018-02-06T04:49:07.073Z,-1.74
2018-02-06T04:51:35.496Z,-1.66
2018-02-06T04:54:03.825Z,-1.68
2018-02-06T04:56:32.175Z,-1.79
2018-02-06T04:59:00.517Z,-1.86
2018-02-06T05:01:28.900Z,-1.91
2018-02-06T05:03:57.231Z,-1.90
2018-02-06T05:06:25.658Z,-1.86
2018-02-06T05:08:53.988Z,-1.85
2018-02-06T05:11:22.334Z,-1.99
2018-02-06T05:13:50.657Z,-2.05
2018-02-06T05:16:19.060Z,-1.93
2018-02-06T05:18:47.440Z,-2.03
2018-02-06T05:21:15.793Z,-2.05
2018-02-06T05:23:44.109Z,-1.96
2018-02-06T05:26:12.461Z,-2.11
2018-02-06T05:28:40.849Z,-2.21
2018-02-06T05:31:09.228Z,-2.23
2018-02-06T05:33:37.609Z,-2.22
2018-02-06T05:36:05.980Z,-2.19
2018-02-06T05:38:34.310Z,-2.36
2018-02-06T05:41:02.654Z,-2.35
2018-02-06T05:43:30.977Z,-2.32
2018-02-06T05:45:59.360Z,-2.44
2018-02-06T05:48:27.718Z,-2.41
2018-02-06T05:50:56.063Z,-2.42
2018-02-06T05:53:24.361Z,-2.55
2018-02-06T05:55:52.706Z,-2.64
2018-02-06T05:58:21.074Z,-2.63
2018-02-06T06:00:49.429Z,-2.68
2018-02-06T06:03:17.821Z,-2.64
2018-02-06T06:05:46.196Z,-2.68
2018-02-06T06:08:14.577Z,-2.72
2018-02-06T06:10:43.011Z,-2.63
2018-02-06T06:13:11.322Z,-2.75
2018-02-06T06:15:39.673Z,-2.74
2018-02-06T06:18:08.010Z,-2.69
2018-02-06T06:20:36.361Z,-2.64
2018-02-06T06:23:04.690Z,-2.82
2018-02-06T06:25:33.078Z,-2.72
2018-02-06T06:28:01.493Z,-2.66
2018-02-06T06:30:29.822Z,-2.74
2018-02-06T06:32:58.177Z,-2.80
2018-02-06T06:35:26.508Z,-2.73
2018-02-06T06:37:54.897Z,-2.59
2018-02-06T06:40:23.227Z,-2.52
2018-02-06T06:42:51.578Z,-2.66
2018-02-06T06:45:19.907Z,-2.61
2018-02-06T06:47:48.257Z,-2.74
2018-02-06T06:50:16.594Z,-2.79
2018-02-06T06:52:44.945Z,-2.65
2018-02-06T06:55:13.276Z,-2.83
2018-02-06T06:57:41.625Z,-2.81
2018-02-06T07:00:09.954Z,-2.83
2018-02-06T07:02:38.301Z,-2.79
2018-02-06T07:05:06.637Z,-2.80
2018-02-06T07:07:34.990Z,-2.83
2018-02-06T07:10:03.393Z,-2.83
2018-02-06T07:12:31.740Z,-2.83
2018-02-06T07:15:00.078Z,-2.72
2018-02-06T07:17:28.471Z,-2.75
2018-02-06T07:19:56.806Z,-2.77
2018-02-06T07:22:26.067Z,-2.70
2018-02-06T07:24:54.406Z,-2.82
2018-02-06T07:27:22.757Z,-2.66
2018-02-06T07:29:51.099Z,-2.80
2018-02-06T07:32:19.463Z,-2.81
2018-02-06T07:34:47.798Z,-2.76
2018-02-06T07:37:16.163Z,-2.86
2018-02-06T07:39:44.489Z,-2.69
2018-02-06T07:42:13.697Z,-2.73
2018-02-06T07:44:42.038Z,-2.74
2018-02-06T07:47:10.385Z,-2.76
2018-02-06T07:49:38.717Z,-2.70
2018-02-06T07:52:07.078Z,-2.58
2018-02-06T07:54:35.419Z,-2.52
2018-02-06T07:57:03.770Z,-2.63
2018-02-06T07:59:34.642Z,-2.58
2018-02-06T08:02:03.206Z,-2.53
2018-02-06T08:04:31.537Z,-2.60
2018-02-06T08:07:00.151Z,-2.60
2018-02-06T08:09:28.494Z,-2.60
2018-02-06T08:11:56.846Z,-2.51
2018-02-06T08:14:25.177Z,-2.53
2018-02-06T08:16:53.533Z,-2.58
2018-02-06T08:19:21.878Z,-2.49
2018-02-06T08:21:50.239Z,-2.48
2018-02-06T08:24:18.574Z,-2.44
2018-02-06T08:26:46.938Z,-2.42
2018-02-06T08:29:15.273Z,-2.38
2018-02-06T08:31:43.605Z,-2.42
2018-02-06T08:34:11.965Z,-2.42
2018-02-06T08:36:40.322Z,-2.34
2018-02-06T08:39:08.662Z,-2.37
2018-02-06T08:41:36.997Z,-2.36
2018-02-06T08:44:05.357Z,-2.28
2018-02-06T08:46:33.686Z,-2.15
2018-02-06T08:49:02.037Z,-2.10
2018-02-06T08:51:30.390Z,-2.16
2018-02-06T08:53:58.746Z,-2.16
2018-02-06T08:56:27.073Z,-2.17
2018-02-06T08:58:55.421Z,-2.17
2018-02-06T09:01:23.753Z,-2.17
2018-02-06T09:03:52.102Z,-2.17
2018-02-06T09:06:20.433Z,-2.11
2018-02-06T09:08:48.790Z,-2.10
2018-02-06T09:11:17.122Z,-2.02
2018-02-06T09:13:45.473Z,-1.99
2018-02-06T09:16:13.814Z,-1.95
2018-02-06T09:18:42.162Z,-1.86
2018-02-06T09:21:10.498Z,-1.86
2018-02-06T09:23:38.849Z,-1.79
2018-02-06T09:26:07.180Z,-1.83
2018-02-06T09:28:35.557Z,-1.80
2018-02-06T09:31:03.865Z,-1.75
2018-02-06T09:33:32.214Z,-1.70
2018-02-06T09:36:00.549Z,-1.67
2018-02-06T09:38:28.900Z,-1.52
2018-02-06T09:40:57.225Z,-1.50
2018-02-06T09:43:25.577Z,-1.49
2018-02-06T09:45:54.809Z,-1.57
2018-02-06T09:48:23.157Z,-1.52
2018-02-06T09:50:51.482Z,-1.47
2018-02-06T09:53:19.848Z,-1.52
2018-02-06T09:55:48.165Z,-1.48
2018-02-06T09:58:16.521Z,-1.44
2018-02-06T10:00:44.850Z,-1.46
2018-02-06T10:03:13.197Z,-1.39
2018-02-06T10:05:41.524Z,-1.31
2018-02-06T10:08:09.886Z,-1.19
2018-02-06T10:10:38.214Z,-1.33
2018-02-06T10:13:06.561Z,-1.30
2018-02-06T10:15:34.894Z,-1.16
2018-02-06T10:18:03.248Z,-1.22
2018-02-06T10:20:31.657Z,-1.16
2018-02-06T10:23:00.010Z,-1.27
2018-02-06T10:25:28.334Z,-1.19
2018-02-06T10:27:56.698Z,-1.12
2018-02-06T10:30:25.013Z,-1.14
2018-02-06T10:32:53.336Z,-1.14
2018-02-06T10:35:21.727Z,-1.22
2018-02-06T10:37:50.032Z,-1.18
2018-02-06T10:40:18.385Z,-1.10
2018-02-06T10:42:46.717Z,-0.98
2018-02-06T10:45:15.056Z,-0.90
2018-02-06T10:47:43.378Z,-0.89
2018-02-06T10:50:11.726Z,-0.84
2018-02-06T10:52:40.049Z,-0.90
2018-02-06T10:55:08.514Z,-0.77
2018-02-06T10:57:36.932Z,-0.69
2018-02-06T11:00:06.018Z,-0.89
2018-02-06T11:02:34.357Z,-0.76
2018-02-06T11:05:02.705Z,-0.79
2018-02-06T11:07:31.044Z,-0.64
2018-02-06T11:09:59.388Z,-0.72
2018-02-06T11:12:27.725Z,-0.70
2018-02-06T11:14:56.075Z,-0.79
2018-02-06T11:17:24.397Z,-0.68
2018-02-06T11:19:52.962Z,-0.62
2018-02-06T11:22:21.365Z,-0.66
2018-02-06T11:24:49.718Z,-0.79
2018-02-06T11:27:18.033Z,-0.76
2018-02-06T11:29:46.381Z,-0.71
2018-02-06T11:32:14.711Z,-0.77
2018-02-06T11:34:43.065Z,-0.74
2018-02-06T11:37:11.393Z,-0.69
2018-02-06T11:39:40.372Z,-0.85
2018-02-06T11:42:08.740Z,-0.92
2018-02-06T11:44:37.051Z,-0.87
2018-02-06T11:47:05.377Z,-0.85
2018-02-06T11:49:33.725Z,-0.81
2018-02-06T11:52:02.069Z,-0.82
2018-02-06T11:54:30.411Z,-0.79
2018-02-06T11:56:58.733Z,-0.87
2018-02-06T11:59:27.086Z,-0.77
2018-02-06T12:01:55.413Z,-0.74
2018-02-06T12:04:23.757Z,-0.58
2018-02-06T12:06:52.085Z,-0.58
2018-02-06T12:09:20.429Z,-0.61
2018-02-06T12:11:48.758Z,-0.64
2018-02-06T12:14:17.368Z,-0.57
2018-02-06T12:16:45.717Z,-0.49
2018-02-06T12:19:14.700Z,-0.52
2018-02-06T12:21:43.021Z,-0.42
2018-02-06T12:24:11.369Z,-0.38
2018-02-06T12:26:39.704Z,-0.47
2018-02-06T12:29:08.049Z,-0.57
2018-02-06T12:31:36.382Z,-0.49
2018-02-06T12:34:04.713Z,-0.43
2018-02-06T12:36:33.065Z,-0.36
2018-02-06T12:39:02.317Z,-0.27
2018-02-06T12:41:30.665Z,-0.30
2018-02-06T12:43:58.991Z,-0.27
2018-02-06T12:46:27.337Z,-0.22
2018-02-06T12:48:55.665Z,-0.12
2018-02-06T12:51:24.017Z,-0.07
2018-02-06T12:53:52.354Z,-0.10
2018-02-06T12:56:20.693Z,-0.20
2018-02-06T12:58:49.849Z,-0.18
2018-02-06T13:01:18.198Z,-0.32
2018-02-06T13:03:46.526Z,-0.33
2018-02-06T13:06:15.709Z,-0.32
2018-02-06T13:08:44.041Z,-0.24
2018-02-06T13:11:12.385Z,-0.16
2018-02-06T13:13:40.714Z,-0.13
2018-02-06T13:16:09.060Z,-0.18
2018-02-06T13:18:37.396Z,-0.03
2018-02-06T13:21:05.746Z,-0.14
2018-02-06T13:23:34.099Z,-0.03
2018-02-06T13:26:02.426Z,0.01
2018-02-06T13:28:30.746Z,-0.05
2018-02-06T13:30:59.098Z,-0.05
2018-02-06T13:33:27.421Z,-0.15
2018-02-06T13:35:58.171Z,-0.01
2018-02-06T13:38:32.014Z,0.01
2018-02-06T13:41:00.435Z,0.09
2018-02-06T13:43:28.809Z,-0.03
2018-02-06T13:45:58.094Z,0.06
2018-02-06T13:48:26.400Z,0.03
2018-02-06T13:50:55.404Z,0.12
2018-02-06T13:53:23.717Z,0.06
2018-02-06T13:55:53.041Z,0.06
2018-02-06T13:58:21.381Z,0.02
2018-02-06T14:00:51.189Z,0.05
2018-02-06T14:03:19.740Z,0.20
2018-02-06T14:05:48.164Z,0.11
2018-02-06T14:08:17.322Z,0.20
2018-02-06T14:10:57.006Z,0.22
2018-02-06T14:13:44.973Z,0.52
2018-02-06T14:19:15.434Z,0.42
2018-02-06T14:21:49.004Z,0.38
2018-02-06T14:24:17.418Z,0.45
2018-02-06T14:26:45.749Z,0.39
2018-02-06T14:29:14.915Z,0.35
2018-02-06T14:31:50.855Z,0.27
2018-02-06T14:34:20.431Z,0.38
2018-02-06T14:36:48.846Z,0.42
2018-02-06T14:39:17.285Z,0.48
2018-02-06T14:41:45.837Z,0.37
2018-02-06T14:44:14.301Z,0.47
2018-02-06T14:46:42.642Z,0.44
2018-02-06T14:49:10.970Z,0.24
2018-02-06T14:51:39.318Z,0.11
2018-02-06T14:54:07.650Z,0.18
2018-02-06T14:56:35.997Z,0.24
2018-02-06T14:59:04.317Z,0.16
2018-02-06T15:01:32.657Z,0.39
2018-02-06T15:04:01.018Z,0.39
2018-02-06T15:06:29.366Z,0.46
2018-02-06T15:08:58.021Z,0.36
2018-02-06T15:11:26.825Z,0.24
2018-02-06T15:13:55.438Z,0.27
2018-02-06T15:16:24.218Z,0.24
2018-02-06T15:18:53.493Z,0.19
2018-02-06T15:21:23.201Z,0.26
2018-02-06T15:23:51.782Z,0.32
2018-02-06T15:26:20.395Z,0.19
2018-02-06T15:28:48.868Z,0.19
2018-02-06T15:31:18.027Z,0.24
2018-02-06T15:33:46.760Z,0.17
2018-02-06T15:36:15.384Z,0.15
2018-02-06T15:38:44.161Z,0.19
2018-02-06T15:41:12.933Z,0.20
2018-02-06T15:43:41.725Z,0.05
2018-02-06T15:46:11.746Z,0.13
2018-02-06T15:48:40.540Z,0.15
2018-02-06T15:51:08.887Z,0.20
2018-02-06T15:53:37.200Z,0.05
2018-02-06T15:56:06.564Z,0.02
2018-02-06T15:58:34.883Z,-0.04
2018-02-06T16:01:03.234Z,-0.03
2018-02-06T16:03:31.589Z,-0.04
2018-02-06T16:06:00.866Z,-0.06
2018-02-06T16:08:29.220Z,-0.05
2018-02-06T16:10:57.550Z,-0.03
2018-02-06T16:13:25.894Z,-0.07
2018-02-06T16:15:55.192Z,-0.14
2018-02-06T16:18:23.537Z,-0.20
2018-02-06T16:20:51.879Z,-0.28
2018-02-06T16:23:20.729Z,-0.27
2018-02-06T16:25:49.949Z,-0.16
2018-02-06T16:28:18.303Z,-0.20
2018-02-06T16:30:46.630Z,-0.25
2018-02-06T16:33:14.977Z,-0.15
2018-02-06T16:35:43.998Z,-0.16
2018-02-06T16:38:12.345Z,-0.21
2018-02-06T16:40:40.706Z,-0.20
2018-02-06T16:43:09.081Z,-0.29
2018-02-06T16:45:37.418Z,-0.24
2018-02-06T16:48:05.877Z,-0.25
2018-02-06T16:50:34.537Z,-0.12
2018-02-06T16:53:02.938Z,-0.22
2018-02-06T16:55:31.280Z,-0.16
2018-02-06T16:57:59.613Z,-0.24
2018-02-06T17:00:27.978Z,-0.28
2018-02-06T17:02:56.337Z,-0.36
2018-02-06T17:05:24.665Z,-0.40
2018-02-06T17:07:53.015Z,-0.27
2018-02-06T17:10:21.345Z,-0.29
2018-02-06T17:12:49.699Z,-0.27
2018-02-06T17:15:18.026Z,-0.37
2018-02-06T17:17:46.390Z,-0.42
2018-02-06T17:20:14.824Z,-0.36
2018-02-06T17:22:43.654Z,-0.26
2018-02-06T17:25:12.040Z,-0.22
2018-02-06T17:27:40.774Z,-0.19
2018-02-06T17:30:09.221Z,-0.11
2018-02-06T17:32:37.576Z,-0.11
2018-02-06T17:35:05.909Z,-0.10
2018-02-06T17:37:34.267Z,-0.17
2018-02-06T17:40:02.598Z,-0.21
2018-02-06T17:42:30.949Z,-0.38
2018-02-06T17:44:59.286Z,-0.25
2018-02-06T17:47:27.636Z,-0.35
2018-02-06T17:49:55.985Z,-0.21
2018-02-06T17:52:24.334Z,-0.18
2018-02-06T17:54:52.660Z,-0.23
2018-02-06T17:57:21.078Z,-0.25
2018-02-06T17:59:49.512Z,-0.16
2018-02-06T18:02:17.965Z,-0.15
2018-02-06T18:04:47.153Z,-0.19
2018-02-06T18:07:16.045Z,-0.20
2018-02-06T18:09:45.033Z,-0.31
2018-02-06T18:12:17.200Z,-0.16
2018-02-06T18:14:46.821Z,-0.20
2018-02-06T18:17:16.002Z,-0.27
2018-02-06T18:19:46.528Z,-0.12
2018-02-06T18:22:17.056Z,-0.08
2018-02-06T18:24:45.777Z,-0.27
2018-02-06T18:27:16.423Z,-0.29
2018-02-06T18:29:45.082Z,-0.28
2018-02-06T18:32:15.214Z,-0.47
2018-02-06T18:34:43.820Z,-0.43
2018-02-06T18:37:12.406Z,-0.40
2018-02-06T18:39:43.070Z,-0.31
2018-02-06T18:42:12.300Z,-0.31
2018-02-06T18:44:41.024Z,-0.40
2018-02-06T18:47:09.683Z,-0.45
2018-02-06T18:49:40.072Z,-0.41
2018-02-06T18:52:10.921Z,-0.40
2018-02-06T18:54:40.379Z,-0.19
2018-02-06T18:57:08.938Z,-0.32
2018-02-06T18:59:39.194Z,-0.31
2018-02-06T19:02:08.009Z,0.10
2018-02-06T19:04:36.720Z,0.05
2018-02-06T19:07:06.873Z,-0.20
2018-02-06T19:09:35.781Z,-0.33
2018-02-06T19:12:05.511Z,-0.40
2018-02-06T19:14:35.200Z,-0.26
2018-02-06T19:17:04.092Z,-0.23
2018-02-06T19:19:33.366Z,-0.28
2018-02-06T19:22:02.898Z,-0.25
2018-02-06T19:24:32.649Z,-0.38
2018-02-06T19:27:02.004Z,-0.39
2018-02-06T19:29:31.125Z,-0.42
2018-02-06T19:31:59.569Z,-0.40
2018-02-06T19:34:28.281Z,-0.46
2018-02-06T19:36:56.830Z,-0.49
2018-02-06T19:39:25.231Z,-0.49
2018-02-06T19:41:53.566Z,-0.54
2018-02-06T19:44:21.917Z,-0.51
2018-02-06T19:46:50.685Z,-0.36
2018-02-06T19:49:19.041Z,-0.46
2018-02-06T19:51:47.378Z,-0.45
2018-02-06T19:54:15.737Z,-0.41
2018-02-06T19:56:44.128Z,-0.49
2018-02-06T19:59:21.980Z,-0.49
2018-02-06T20:01:56.281Z,-0.47
2018-02-06T20:04:24.641Z,-0.51
2018-02-06T20:06:52.969Z,-0.43
2018-02-06T20:09:21.321Z,-0.47
2018-02-06T20:11:49.733Z,-0.54
2018-02-06T20:14:18.097Z,-0.50
2018-02-06T20:16:46.468Z,-0.52
2018-02-06T20:19:14.822Z,-0.48
2018-02-06T20:21:43.155Z,-0.44
2018-02-06T20:24:11.521Z,-0.58
2018-02-06T20:26:40.795Z,-0.51
2018-02-06T20:29:09.194Z,-0.54
2018-02-06T20:31:37.530Z,-0.48
2018-02-06T20:34:05.882Z,-0.43
2018-02-06T20:36:34.935Z,-0.48
2018-02-06T20:39:03.293Z,-0.52
2018-02-06T20:41:31.627Z,-0.60
2018-02-06T20:43:59.978Z,-0.55
2018-02-06T20:46:28.309Z,-0.58
2018-02-06T20:48:56.722Z,-0.65
2018-02-06T20:51:25.058Z,-0.64
2018-02-06T20:53:53.481Z,-0.57
2018-02-06T20:56:21.820Z,-0.56
2018-02-06T20:58:50.237Z,-0.58
2018-02-06T21:01:18.595Z,-0.59
2018-02-06T21:03:46.934Z,-0.57
2018-02-06T21:06:15.302Z,-0.66
2018-02-06T21:08:43.630Z,-0.55
2018-02-06T21:11:11.989Z,-0.49
2018-02-06T21:13:40.542Z,-0.46
2018-02-06T21:16:09.441Z,-0.58
2018-02-06T21:18:37.778Z,-0.58
2018-02-06T21:21:06.498Z,-0.59
2018-02-06T21:23:34.862Z,-0.52
2018-02-06T21:26:03.248Z,-0.72
2018-02-06T21:28:31.706Z,-0.58
2018-02-06T21:31:00.070Z,-0.65
2018-02-06T21:33:28.401Z,-0.62
2018-02-06T21:35:56.760Z,-0.61
2018-02-06T21:38:25.093Z,-0.57
2018-02-06T21:40:53.449Z,-0.53
2018-02-06T21:43:21.926Z,-0.61
2018-02-06T21:45:51.226Z,-0.52
2018-02-06T21:48:19.562Z,-0.46
2018-02-06T21:50:47.913Z,-0.51
2018-02-06T21:53:16.244Z,-0.54
2018-02-06T21:55:44.813Z,-0.57
2018-02-06T21:58:13.175Z,-0.65
2018-02-06T22:00:41.512Z,-0.59
2018-02-06T22:03:09.850Z,-0.60
2018-02-06T22:05:38.203Z,-0.65
2018-02-06T22:08:06.533Z,-0.64
2018-02-06T22:10:34.885Z,-0.61
2018-02-06T22:13:03.220Z,-0.65
2018-02-06T22:15:31.577Z,-0.63
2018-02-06T22:17:59.913Z,-0.65
2018-02-06T22:20:28.265Z,-0.65
2018-02-06T22:22:56.606Z,-0.50
2018-02-06T22:25:24.995Z,-0.58
2018-02-06T22:27:53.297Z,-0.65
2018-02-06T22:30:21.854Z,-0.63
2018-02-06T22:32:50.185Z,-0.55
2018-02-06T22:35:18.532Z,-0.57
2018-02-06T22:37:46.868Z,-0.63
2018-02-06T22:40:15.217Z,-0.65
2018-02-06T22:42:43.545Z,-0.67
2018-02-06T22:45:11.894Z,-0.59
2018-02-06T22:47:40.225Z,-0.63
2018-02-06T22:50:08.573Z,-0.60
2018-02-06T22:52:36.901Z,-0.66
2018-02-06T22:55:05.250Z,-0.64
2018-02-06T22:57:33.584Z,-0.69
2018-02-06T23:00:01.933Z,-0.59
2018-02-06T23:02:30.262Z,-0.68
2018-02-06T23:04:58.589Z,-0.65
2018-02-06T23:07:26.938Z,-0.73
2018-02-06T23:09:55.264Z,-0.72
2018-02-06T23:12:23.613Z,-0.68
2018-02-06T23:14:51.942Z,-0.71
2018-02-06T23:17:20.298Z,-0.59
2018-02-06T23:19:48.629Z,-0.74
2018-02-06T23:22:16.985Z,-0.74
2018-02-06T23:24:45.317Z,-0.81
2018-02-06T23:27:13.669Z,-0.77
2018-02-06T23:29:41.998Z,-0.76
2018-02-06T23:32:10.349Z,-0.71
2018-02-06T23:34:38.682Z,-0.76
2018-02-06T23:37:07.033Z,-0.87
2018-02-06T23:39:35.362Z,-0.73
2018-02-06T23:42:03.716Z,-0.75
2018-02-06T23:44:32.041Z,-0.74
2018-02-06T23:47:00.389Z,-0.81
2018-02-06T23:49:28.718Z,-0.77
2018-02-06T23:51:57.073Z,-0.82
2018-02-06T23:54:25.403Z,-0.77
2018-02-06T23:56:53.749Z,-0.85
2018-02-06T23:59:22.077Z,-0.84
